Time;durP1;ratioP1;P1;durP2;ratioP2;P2;SDS_P1;SDS_P2;PMS_P1;PMS_P2;Temp;Humidity;BMP_temperature;BMP_pressure;BME280_temperature;BME280_humidity;BME280_pressure;Samples;Min_cycle;Max_cycle;Signal;HPM_P1;HPM_P2
2023/12/16 16:06:05;;;;;;;32.00;19.50;;;;;;;3.81;100.00;98372.67;103974;1301;545149;-85
2023/12/16 16:08:32;;;;;;;63.80;34.50;;;;;;;3.78;100.00;98368.74;106287;1286;25357;-86
2023/12/16 16:10:59;;;;;;;199.10;91.30;;;;;;;3.78;100.00;98372.92;107100;1280;137643;-85
2023/12/16 16:13:25;;;;;;;183.10;100.30;;;;;;;3.78;100.00;98376.15;107252;1275;22682;-86
2023/12/16 16:15:52;;;;;;;144.70;68.40;;;;;;;3.78;100.00;98379.90;107077;1281;138437;-85
2023/12/16 16:18:19;;;;;;;67.30;32.40;;;;;;;3.77;100.00;98379.64;107199;1275;22572;-85
2023/12/16 16:20:47;;;;;;;57.60;31.90;;;;;;;3.76;100.00;98379.84;107217;1274;158691;-85
2023/12/16 16:23:13;;;;;;;72.00;37.40;;;;;;;3.76;100.00;98378.69;110058;1278;138635;-86
2023/12/16 16:25:40;;;;;;;82.10;34.10;;;;;;;3.75;100.00;98377.38;109211;1278;22546;-85
2023/12/16 16:28:06;;;;;;;53.00;36.70;;;;;;;3.74;100.00;98379.99;107176;1278;138151;-85
2023/12/16 16:30:33;;;;;;;40.50;31.00;;;;;;;3.72;100.00;98375.77;107352;1278;22530;-87
2023/12/16 16:33:02;;;;;;;23.90;16.80;;;;;;;3.72;100.00;98379.77;107518;1271;23350;-87
2023/12/16 16:35:28;;;;;;;50.40;22.80;;;;;;;3.70;100.00;98379.21;106979;1260;137870;-86
2023/12/16 16:37:55;;;;;;;23.80;12.70;;;;;;;3.67;100.00;98375.42;107072;1274;25437;-87
2023/12/16 16:40:22;;;;;;;18.70;14.20;;;;;;;3.65;100.00;98371.80;107016;1255;138064;-86
2023/12/16 16:42:49;;;;;;;28.10;18.30;;;;;;;3.63;100.00;98369.48;107316;1278;23335;-86
2023/12/16 16:45:15;;;;;;;32.50;19.50;;;;;;;3.60;100.00;98363.66;110035;1271;22329;-87
2023/12/16 16:47:42;;;;;;;18.70;12.70;;;;;;;3.59;100.00;98365.98;109989;1278;137891;-87
2023/12/16 16:50:09;;;;;;;18.80;12.20;;;;;;;3.58;100.00;98366.02;110065;1273;22363;-87
2023/12/16 16:52:38;;;;;;;19.70;13.40;;;;;;;3.57;100.00;98363.65;108718;1274;137878;-87
2023/12/16 16:55:06;;;;;;;17.10;12.10;;;;;;;3.57;100.00;98363.16;107175;1272;26511;-87
2023/12/16 16:57:32;;;;;;;14.40;11.60;;;;;;;3.56;100.00;98362.36;107120;1272;23286;-87
2023/12/16 17:00:07;;;;;;;16.90;14.50;;;;;;;3.55;100.00;98362.08;106996;1273;138711;-86
2023/12/16 17:02:35;;;;;;;28.50;13.80;;;;;;;3.52;100.00;98358.79;107060;1273;24377;-87
2023/12/16 17:05:04;;;;;;;23.70;11.90;;;;;;;3.51;100.00;98359.21;108693;1278;137802;-87
2023/12/16 17:07:37;;;;;;;15.40;10.20;;;;;;;3.50;100.00;98356.85;110123;1279;22889;-87
2023/12/16 17:10:07;;;;;;;20.50;12.60;;;;;;;3.50;100.00;98354.13;109258;1275;138044;-86
2023/12/16 17:12:33;;;;;;;84.50;42.90;;;;;;;3.51;100.00;98355.10;107047;1274;25603;-86
2023/12/16 17:15:01;;;;;;;44.90;21.80;;;;;;;3.52;100.00;98353.35;107041;1278;22539;-87
2023/12/16 17:17:28;;;;;;;22.50;11.60;;;;;;;3.51;100.00;98350.80;107204;1278;138302;-86
2023/12/16 17:19:55;;;;;;;14.90;10.50;;;;;;;3.50;100.00;98345.55;107353;1272;24308;-86
2023/12/16 17:22:21;;;;;;;24.60;11.60;;;;;;;3.50;100.00;98344.55;107063;1278;138815;-87
2023/12/16 17:24:48;;;;;;;22.20;11.30;;;;;;;3.50;100.00;98348.30;107041;1278;22571;-86
2023/12/16 17:27:15;;;;;;;28.10;12.30;;;;;;;3.50;100.00;98347.98;107234;1278;22642;-86
2023/12/16 17:29:42;;;;;;;18.70;11.30;;;;;;;3.50;100.00;98345.04;107146;1274;138466;-86
2023/12/16 17:32:10;;;;;;;16.10;9.80;;;;;;;3.50;100.00;98337.83;110055;1277;22358;-86
2023/12/16 17:34:37;;;;;;;15.40;8.90;;;;;;;3.50;100.00;98334.76;110072;1273;138944;-87
2023/12/16 17:37:04;;;;;;;14.60;8.60;;;;;;;3.50;100.00;98338.35;109280;1277;23283;-87
2023/12/16 17:39:30;;;;;;;21.40;10.80;;;;;;;3.51;100.00;98341.08;107175;1272;27280;-87
2023/12/16 17:41:58;;;;;;;67.10;27.30;;;;;;;3.52;100.00;98344.77;107013;1278;138747;-86
2023/12/16 17:44:25;;;;;;;22.90;11.10;;;;;;;3.51;100.00;98340.17;107229;1278;24280;-86
2023/12/16 17:46:52;;;;;;;94.50;50.80;;;;;;;3.52;100.00;98348.70;107197;1271;139108;-87
2023/12/16 17:49:18;;;;;;;39.90;18.50;;;;;;;3.53;100.00;98349.86;107050;1274;22527;-87
2023/12/16 17:51:45;;;;;;;31.00;14.80;;;;;;;3.52;100.00;98354.70;106941;1275;138499;-86
2023/12/16 17:54:11;;;;;;;46.90;20.60;;;;;;;3.52;100.00;98358.79;107138;1275;23907;-86
2023/12/16 17:56:38;;;;;;;85.50;32.10;;;;;;;3.51;100.00;98359.36;107159;1278;22537;-86
2023/12/16 17:59:05;;;;;;;84.50;31.30;;;;;;;3.52;100.00;98360.02;107213;1278;138385;-86
2023/12/16 18:01:32;;;;;;;69.60;26.50;;;;;;;3.51;100.00;98363.69;107278;1279;23300;-87
2023/12/16 18:03:58;;;;;;;48.40;28.50;;;;;;;3.50;100.00;98367.31;107052;1279;138496;-87
2023/12/16 18:06:25;;;;;;;52.10;23.80;;;;;;;3.50;100.00;98365.09;106991;1279;22604;-86
2023/12/16 18:08:52;;;;;;;58.90;26.10;;;;;;;3.49;100.00;98365.33;107164;1278;22543;-86
2023/12/16 18:11:19;;;;;;;40.70;19.80;;;;;;;3.49;100.00;98363.64;107040;1271;138455;-86
2023/12/16 18:13:45;;;;;;;28.60;14.70;;;;;;;3.48;100.00;98371.04;107283;1274;25267;-86
2023/12/16 18:16:12;;;;;;;26.10;15.20;;;;;;;3.48;100.00;98368.12;106985;1279;138469;-86
2023/12/16 18:18:41;;;;;;;28.10;16.90;;;;;;;3.48;100.00;98371.55;107078;1274;23919;-86
2023/12/16 18:21:09;;;;;;;43.90;23.70;;;;;;;3.49;100.00;98375.94;107119;1268;25507;-86
2023/12/16 18:23:36;;;;;;;82.50;41.10;;;;;;;3.50;100.00;98377.11;107222;1273;137814;-86
2023/12/16 18:26:07;;;;;;;47.20;22.00;;;;;;;3.50;100.00;98376.92;107313;1278;23478;-86
2023/12/16 18:28:34;;;;;;;58.40;26.20;;;;;;;3.50;100.00;98385.17;107220;1279;138886;-85
2023/12/16 18:31:01;;;;;;;24.30;12.80;;;;;;;3.50;100.00;98383.45;107164;1279;22536;-86
2023/12/16 18:33:27;;;;;;;25.90;13.60;;;;;;;3.49;100.00;98384.36;107185;1274;23243;-86
2023/12/16 18:35:54;;;;;;;43.80;23.40;;;;;;;3.48;100.00;98380.12;106884;1278;137664;-86
2023/12/16 18:38:22;;;;;;;26.50;15.10;;;;;;;3.47;100.00;98378.14;107168;1261;22619;-86
2023/12/16 18:40:49;;;;;;;38.00;19.80;;;;;;;3.46;100.00;98380.40;107279;1271;138394;-86
2023/12/16 18:43:15;;;;;;;43.30;19.70;;;;;;;3.47;100.00;98382.27;107031;1278;22601;-86
2023/12/16 18:45:42;;;;;;;33.60;17.90;;;;;;;3.47;100.00;98376.61;107064;1278;138550;-87
2023/12/16 18:48:08;;;;;;;23.30;13.10;;;;;;;3.46;100.00;98376.98;107174;1275;22534;-87
2023/12/16 18:50:35;;;;;;;20.90;13.10;;;;;;;3.47;100.00;98380.55;107118;1274;22582;-86
2023/12/16 18:53:02;;;;;;;37.90;19.10;;;;;;;3.47;100.00;98383.94;107074;1272;137888;-86
2023/12/16 18:55:29;;;;;;;38.10;23.30;;;;;;;3.47;100.00;98380.88;107125;1277;25387;-86
2023/12/16 18:57:56;;;;;;;38.60;18.70;;;;;;;3.48;100.00;98380.32;107073;1271;139508;-86
2023/12/16 19:00:23;;;;;;;38.90;16.20;;;;;;;3.47;100.00;98381.22;107193;1274;25244;-86
2023/12/16 19:02:50;;;;;;;33.00;15.40;;;;;;;3.47;100.00;98377.93;106982;1271;22540;-87
2023/12/16 19:05:17;;;;;;;37.00;19.90;;;;;;;3.48;100.00;98386.13;107053;1278;137972;-87
2023/12/16 19:07:44;;;;;;;24.20;14.20;;;;;;;3.49;100.00;98388.83;107177;1272;23775;-87
2023/12/16 19:10:10;;;;;;;25.50;14.00;;;;;;;3.49;100.00;98385.91;107198;1278;138334;-87
2023/12/16 19:12:37;;;;;;;23.10;14.50;;;;;;;3.48;100.00;98381.98;110163;1278;22958;-87
2023/12/16 19:15:06;;;;;;;32.50;20.40;;;;;;;3.49;100.00;98385.05;110063;1278;22200;-88
2023/12/16 19:17:32;;;;;;;27.40;15.10;;;;;;;3.49;100.00;98379.88;110152;1278;138533;-87
2023/12/16 19:19:59;;;;;;;22.90;12.90;;;;;;;3.49;100.00;98378.16;108899;1275;24089;-87
2023/12/16 19:22:26;;;;;;;33.00;18.10;;;;;;;3.51;100.00;98378.77;106990;1271;138433;-86
2023/12/16 19:24:52;;;;;;;42.70;23.90;;;;;;;3.51;100.00;98371.18;107152;1274;22578;-86
2023/12/16 19:27:19;;;;;;;37.90;20.10;;;;;;;3.51;100.00;98365.37;107038;1274;22550;-86
2023/12/16 19:29:46;;;;;;;53.20;32.20;;;;;;;3.49;100.00;98361.73;107026;1259;137856;-87
2023/12/16 19:32:13;;;;;;;42.30;20.80;;;;;;;3.47;100.00;98358.58;107290;1279;22626;-87
2023/12/16 19:34:39;;;;;;;41.70;19.60;;;;;;;3.46;100.00;98364.33;107324;1279;138437;-87
2023/12/16 19:37:06;;;;;;;31.20;17.70;;;;;;;3.44;100.00;98362.76;107327;1279;23265;-86
2023/12/16 19:39:32;;;;;;;20.90;13.70;;;;;;;3.41;100.00;98364.60;107176;1277;22571;-87
2023/12/16 19:42:00;;;;;;;26.00;16.50;;;;;;;3.39;100.00;98363.16;107018;1271;138024;-87
2023/12/16 19:44:28;;;;;;;24.10;13.20;;;;;;;3.38;100.00;98367.86;107176;1275;22572;-86
2023/12/16 19:46:55;;;;;;;25.80;14.30;;;;;;;3.36;100.00;98370.23;107156;1279;139320;-87
2023/12/16 19:49:22;;;;;;;51.90;31.10;;;;;;;3.36;100.00;98371.59;107284;1276;22554;-87
2023/12/16 19:51:48;;;;;;;39.40;19.20;;;;;;;3.34;100.00;98364.48;107125;1274;138048;-87
2023/12/16 19:54:15;;;;;;;30.80;16.40;;;;;;;3.33;100.00;98370.39;107011;1273;22639;-87
2023/12/16 19:56:41;;;;;;;26.80;15.30;;;;;;;3.33;100.00;98370.92;107139;1274;23311;-87
2023/12/16 19:59:09;;;;;;;23.00;14.30;;;;;;;3.33;100.00;98363.69;106994;1273;137839;-86
2023/12/16 20:01:44;;;;;;;21.70;12.70;;;;;;;3.33;100.00;98359.23;107080;1279;24204;-86
2023/12/16 20:04:12;;;;;;;20.30;14.10;;;;;;;3.33;100.00;98361.48;107088;1273;138842;-87
2023/12/16 20:06:40;;;;;;;38.50;19.80;;;;;;;3.33;100.00;98358.06;109084;1277;25443;-93
2023/12/16 20:09:10;;;;;;;34.40;17.40;;;;;;;3.34;100.00;98361.73;108076;1274;22584;-92
2023/12/16 20:11:38;;;;;;;23.50;12.80;;;;;;;3.36;100.00;98357.52;108134;1278;136939;-92
2023/12/16 20:14:35;;;;;;;21.00;12.20;;;;;;;3.40;100.00;98345.80;104885;1293;545763;-90
2023/12/16 20:17:06;;;;;;;15.80;9.80;;;;;;;3.40;100.00;98349.73;107461;1288;138480;-91
2023/12/16 20:19:38;;;;;;;15.40;9.40;;;;;;;3.40;100.00;98345.98;107599;1281;25427;-92
2023/12/16 20:22:07;;;;;;;15.20;10.20;;;;;;;3.41;100.00;98339.07;107948;1282;137364;-92
2023/12/16 20:24:39;;;;;;;14.50;9.50;;;;;;;3.40;100.00;98333.13;108075;1281;22576;-93
2023/12/16 20:27:09;;;;;;;20.40;11.70;;;;;;;3.40;100.00;98323.58;107186;1286;769255;-92
2023/12/16 20:29:37;;;;;;;35.30;17.30;;;;;;;3.41;100.00;98327.59;107545;1286;137804;-91
2023/12/16 20:32:05;;;;;;;27.90;13.30;;;;;;;3.41;100.00;98335.13;107718;1281;23822;-92
2023/12/16 20:34:32;;;;;;;23.90;12.60;;;;;;;3.40;100.00;98338.43;107587;1283;137351;-92
2023/12/16 20:37:01;;;;;;;19.00;11.40;;;;;;;3.39;100.00;98337.45;107731;1278;22511;-93
2023/12/16 20:42:15;;;;;;;16.90;10.60;;;;;;;3.37;100.00;98332.79;108156;1273;22536;-92
2023/12/16 20:44:46;;;;;;;18.10;15.00;;;;;;;3.37;100.00;98328.20;108068;1278;22665;-92
2023/12/16 20:47:20;;;;;;;23.50;14.30;;;;;;;3.37;100.00;98320.30;107964;1275;137646;-91
2023/12/16 20:49:50;;;;;;;18.80;10.00;;;;;;;3.37;100.00;98320.14;108094;1278;25901;-93
2023/12/16 20:52:22;;;;;;;19.90;9.80;;;;;;;3.37;100.00;98318.42;108229;1277;138871;-91
2023/12/16 20:54:54;;;;;;;15.80;7.50;;;;;;;3.38;100.00;98317.00;108239;1278;23466;-92
2023/12/16 20:57:38;;;;;;;13.40;6.80;;;;;;;3.38;100.00;98322.09;108409;1273;24865;-93
2023/12/16 21:00:50;;;;;;;10.80;6.00;;;;;;;3.39;100.00;98321.52;107974;1281;138518;-92
2023/12/16 21:03:53;;;;;;;22.70;12.10;;;;;;;3.39;100.00;98320.83;108503;1276;22567;-92
2023/12/16 21:06:41;;;;;;;16.30;10.30;;;;;;;3.40;100.00;98315.49;108385;1278;22652;-92
2023/12/16 21:09:20;;;;;;;14.70;9.70;;;;;;;3.39;100.00;98320.16;108063;1278;22565;-92
2023/12/16 21:11:48;;;;;;;21.40;11.50;;;;;;;3.40;100.00;98321.11;107873;1278;138042;-92
2023/12/16 21:14:24;;;;;;;18.70;11.10;;;;;;;3.41;100.00;98318.67;108058;1284;22484;-93
2023/12/16 21:17:18;;;;;;;18.30;11.20;;;;;;;3.39;100.00;98312.10;108009;1281;137724;-92
2023/12/16 21:20:26;;;;;;;21.10;10.80;;;;;;;3.40;100.00;98300.92;108270;1276;24258;-92
2023/12/16 21:22:57;;;;;;;12.20;8.30;;;;;;;3.41;100.00;98282.54;108346;1280;138308;-92
2023/12/16 21:25:24;;;;;;;12.40;7.60;;;;;;;3.40;100.00;98281.72;108140;1275;22590;-93
2023/12/16 21:27:53;;;;;;;12.80;7.90;;;;;;;3.40;100.00;98283.27;107883;1283;23124;-92
2023/12/16 21:30:34;;;;;;;15.00;8.70;;;;;;;3.39;100.00;98286.23;107948;1275;24920;-93
2023/12/16 21:33:08;;;;;;;15.90;8.80;;;;;;;3.38;100.00;98279.30;107966;1283;22559;-92
2023/12/16 21:35:35;;;;;;;20.40;11.30;;;;;;;3.39;100.00;98276.34;107939;1278;137826;-93
2023/12/16 21:38:06;;;;;;;16.70;8.10;;;;;;;3.40;100.00;98269.57;108115;1277;22527;-93
2023/12/16 21:40:38;;;;;;;13.50;7.60;;;;;;;3.42;100.00;98271.55;107805;1283;138639;-92
2023/12/16 21:43:05;;;;;;;16.80;8.00;;;;;;;3.43;100.00;98272.02;108010;1278;22636;-91
2023/12/16 21:45:39;;;;;;;14.70;10.10;;;;;;;3.42;100.00;98275.83;107838;1269;22711;-92
2023/12/16 21:48:06;;;;;;;13.60;8.10;;;;;;;3.43;100.00;98280.23;107702;1278;137786;-92
2023/12/16 21:50:34;;;;;;;15.40;9.70;;;;;;;3.42;100.00;98280.77;108043;1283;22582;-92
2023/12/16 21:53:05;;;;;;;14.90;8.50;;;;;;;3.42;100.00;98278.21;107910;1278;138428;-93
2023/12/16 21:55:33;;;;;;;14.30;8.00;;;;;;;3.41;100.00;98277.56;107915;1281;23299;-92
2023/12/16 22:07:52;;;;;;;13.30;8.80;;;;;;;3.44;100.00;98266.42;105270;1305;545232;-91
2023/12/16 22:10:19;;;;;;;11.40;7.00;;;;;;;3.42;99.98;98266.22;107609;1281;138003;-91
2023/12/16 22:12:50;;;;;;;12.50;9.40;;;;;;;3.43;100.00;98274.88;107657;1288;23276;-92
2023/12/16 22:15:16;;;;;;;11.00;7.30;;;;;;;3.45;100.00;98277.36;108039;1279;23833;-91
2023/12/16 22:17:45;;;;;;;12.40;8.00;;;;;;;3.45;100.00;98285.77;107755;1279;137310;-91
2023/12/16 22:20:21;;;;;;;11.10;7.60;;;;;;;3.44;100.00;98283.23;107411;1281;512896;-92
2023/12/16 22:22:51;;;;;;;14.90;10.00;;;;;;;3.43;100.00;98275.41;107941;1275;137657;-91
2023/12/16 22:25:19;;;;;;;15.40;9.20;;;;;;;3.45;100.00;98278.71;107984;1282;22618;-91
2023/12/16 22:27:57;;;;;;;14.80;9.70;;;;;;;3.44;100.00;98268.98;108084;1282;22548;-91
2023/12/16 22:30:26;;;;;;;13.90;8.20;;;;;;;3.45;100.00;98262.09;107960;1282;137990;-93
2023/12/16 22:33:04;;;;;;;13.00;8.80;;;;;;;3.44;100.00;98261.15;107929;1278;24051;-92
2023/12/16 22:35:31;;;;;;;12.20;9.10;;;;;;;3.45;100.00;98261.22;107870;1281;138052;-92
2023/12/16 22:37:58;;;;;;;19.70;11.40;;;;;;;3.45;100.00;98259.00;107835;1282;22585;-91
2023/12/16 22:40:53;;;;;;;15.60;9.40;;;;;;;3.45;100.00;98248.91;107955;1278;138568;-92
2023/12/16 22:43:27;;;;;;;20.90;12.10;;;;;;;3.45;100.00;98233.86;108289;1275;24028;-92
2023/12/16 22:45:59;;;;;;;14.10;8.90;;;;;;;3.45;100.00;98235.71;108166;1277;22522;-92
2023/12/16 22:48:26;;;;;;;17.50;12.20;;;;;;;3.45;100.00;98230.40;107940;1279;137385;-92
2023/12/16 22:50:56;;;;;;;18.40;9.40;;;;;;;3.45;100.00;98230.42;108082;1274;24364;-91
2023/12/16 22:53:35;;;;;;;18.20;10.10;;;;;;;3.45;100.00;98226.81;108041;1276;138271;-92
2023/12/16 22:56:02;;;;;;;12.50;7.50;;;;;;;3.47;100.00;98223.63;107728;1279;22927;-92
2023/12/16 22:58:30;;;;;;;9.00;7.00;;;;;;;3.47;100.00;98222.20;107568;1280;138500;-92
2023/12/16 23:00:58;;;;;;;10.30;6.60;;;;;;;3.48;100.00;98232.09;107689;1280;22492;-91
2023/12/16 23:03:34;;;;;;;10.30;6.50;;;;;;;3.50;99.90;98242.27;107743;1280;23377;-91
2023/12/16 23:06:00;;;;;;;10.90;6.00;;;;;;;3.50;99.95;98260.75;107815;1280;138331;-92
2023/12/16 23:08:28;;;;;;;14.20;8.70;;;;;;;3.50;100.00;98268.98;107803;1273;22499;-91
2023/12/16 23:10:59;;;;;;;12.70;7.50;;;;;;;3.49;99.91;98272.48;109856;1278;138119;-92
2023/12/16 23:13:45;;;;;;;13.40;8.00;;;;;;;3.48;99.93;98277.17;109950;1282;22904;-92
2023/12/16 23:16:12;;;;;;;15.10;9.00;;;;;;;3.48;99.94;98285.91;109855;1278;137815;-93
2023/12/16 23:18:38;;;;;;;15.40;10.00;;;;;;;3.45;99.73;98285.54;109940;1277;22448;-92
2023/12/16 23:21:05;;;;;;;13.90;9.50;;;;;;;3.45;99.91;98285.23;110229;1272;22228;-91
2023/12/16 23:23:33;;;;;;;13.60;8.20;;;;;;;3.42;99.93;98288.30;110012;1274;137300;-93
2023/12/16 23:26:01;;;;;;;13.50;9.20;;;;;;;3.40;99.83;98286.69;110254;1278;22333;-92
2023/12/16 23:28:28;;;;;;;27.00;14.60;;;;;;;3.39;99.91;98281.43;110004;1275;137807;-92
2023/12/16 23:30:56;;;;;;;22.20;13.30;;;;;;;3.41;99.93;98268.67;110096;1271;22550;-92
2023/12/16 23:33:23;;;;;;;16.10;10.10;;;;;;;3.41;99.93;98254.98;110087;1270;22305;-92
2023/12/16 23:35:49;;;;;;;14.20;10.20;;;;;;;3.41;99.99;98253.26;109989;1278;138149;-91
2023/12/16 23:38:16;;;;;;;21.80;12.00;;;;;;;3.43;99.89;98253.46;110142;1278;22102;-90
2023/12/16 23:40:43;;;;;;;30.30;15.00;;;;;;;3.45;99.88;98258.85;110103;1276;139292;-91
2023/12/16 23:43:09;;;;;;;26.60;15.00;;;;;;;3.46;100.00;98253.33;110200;1276;23077;-91
2023/12/16 23:45:36;;;;;;;16.10;10.00;;;;;;;3.46;100.00;98258.41;110184;1275;22342;-91
2023/12/16 23:48:03;;;;;;;14.10;8.90;;;;;;;3.48;99.97;98271.00;110029;1275;138342;-91
2023/12/16 23:50:29;;;;;;;12.20;7.50;;;;;;;3.50;100.00;98274.49;110078;1277;22379;-91
2023/12/16 23:52:55;;;;;;;12.30;8.10;;;;;;;3.50;99.97;98275.30;109973;1274;137558;-91
2023/12/16 23:55:23;;;;;;;9.40;7.20;;;;;;;3.51;100.00;98277.85;110061;1275;22202;-90
2023/12/16 23:57:49;;;;;;;11.10;7.30;;;;;;;3.52;99.97;98277.09;110164;1278;22204;-90
